Time;durP1;ratioP1;P1;durP2;ratioP2;P2;SDS_P1;SDS_P2;PMS_P1;PMS_P2;Temp;Humidity;BMP_temperature;BMP_pressure;BME280_temperature;BME280_humidity;BME280_pressure;Samples;Min_cycle;Max_cycle;Signal;HPM_P1;HPM_P2
2022/06/16 00:01:40;;;;;;;0.00;0.00;;;20.80;91.00;;;;;;5060410;28;20272;-76
2022/06/16 00:04:06;;;;;;;0.00;0.00;;;20.80;91.10;;;;;;5063597;28;20024;-76
2022/06/16 00:06:32;;;;;;;0.00;0.00;;;20.70;91.20;;;;;;5061426;28;20085;-76
2022/06/16 00:08:58;;;;;;;0.00;0.00;;;20.70;91.30;;;;;;5043146;28;20078;-76
2022/06/16 00:11:23;;;;;;;0.00;0.00;;;20.70;91.40;;;;;;5042599;28;20096;-76
2022/06/16 00:13:51;;;;;;;0.00;0.00;;;20.70;91.50;;;;;;5042939;28;20244;-76
2022/06/16 00:16:19;;;;;;;0.00;0.00;;;20.70;92.00;;;;;;5057629;28;20316;-76
2022/06/16 00:18:45;;;;;;;0.00;0.00;;;20.60;91.80;;;;;;5063401;28;20099;-76
2022/06/16 00:21:12;;;;;;;0.00;0.00;;;20.60;91.90;;;;;;5041911;28;20064;-76
2022/06/16 00:23:38;;;;;;;0.00;0.00;;;20.60;92.30;;;;;;5040545;28;20036;-76
2022/06/16 00:26:10;;;;;;;0.00;0.00;;;20.50;92.10;;;;;;5059785;28;20024;-76
2022/06/16 00:28:36;;;;;;;0.00;0.00;;;20.50;92.20;;;;;;5054397;28;20036;-75
2022/06/16 00:31:04;;;;;;;0.00;0.00;;;20.50;92.40;;;;;;5043077;28;20051;-76
2022/06/16 00:33:30;;;;;;;0.00;0.00;;;20.50;92.40;;;;;;5060875;28;20059;-74
2022/06/16 00:35:56;;;;;;;0.00;0.00;;;20.50;92.50;;;;;;5042868;28;20025;-76
2022/06/16 00:38:23;;;;;;;0.00;0.00;;;20.40;92.60;;;;;;5043067;28;20182;-76
2022/06/16 00:40:48;;;;;;;0.00;0.00;;;20.40;92.80;;;;;;5061213;28;20025;-76
2022/06/16 00:43:14;;;;;;;0.00;0.00;;;20.40;92.80;;;;;;5042086;28;20207;-76
2022/06/16 00:46:01;;;;;;;0.00;0.00;;;20.30;92.80;;;;;;5041486;28;20024;-76
2022/06/16 00:48:53;;;;;;;0.00;0.00;;;20.30;93.00;;;;;;5058888;28;20059;-76
2022/06/16 00:51:34;;;;;;;0.00;0.00;;;20.30;93.10;;;;;;5062446;28;20104;-76
2022/06/16 00:54:23;;;;;;;0.00;0.00;;;20.30;93.30;;;;;;5056488;28;20054;-76
2022/06/16 00:56:52;;;;;;;0.00;0.00;;;20.20;93.40;;;;;;5047314;28;20335;-76
2022/06/16 00:59:19;;;;;;;0.00;0.00;;;20.20;93.70;;;;;;5058209;28;20048;-76
2022/06/16 01:01:46;;;;;;;0.00;0.00;;;20.20;93.50;;;;;;5058458;28;20040;-76
2022/06/16 01:07:01;;;;;;;0.00;0.00;;;20.10;93.60;;;;;;5064538;28;20051;-75
2022/06/16 01:09:30;;;;;;;0.00;0.00;;;20.10;93.80;;;;;;5045454;28;20032;-75
2022/06/16 01:15:11;;;;;;;0.00;0.00;;;20.10;94.10;;;;;;5058166;28;20044;-77
2022/06/16 01:18:01;;;;;;;0.00;0.00;;;20.00;94.20;;;;;;5041407;28;20092;-75
2022/06/16 01:20:51;;;;;;;0.00;0.00;;;20.00;94.30;;;;;;5061415;28;20120;-75
2022/06/16 01:23:29;;;;;;;0.00;0.00;;;20.00;94.50;;;;;;5066430;28;20116;-75
2022/06/16 01:26:28;;;;;;;0.00;0.00;;;20.00;94.70;;;;;;5062204;28;20021;-75
2022/06/16 01:29:20;;;;;;;0.00;0.00;;;19.90;94.70;;;;;;5057121;28;20017;-75
2022/06/16 01:31:54;;;;;;;0.00;0.00;;;19.90;94.70;;;;;;5061368;28;20056;-75
2022/06/16 01:35:04;;;;;;;0.00;0.00;;;19.80;94.90;;;;;;5053967;28;20029;-75
2022/06/16 01:37:51;;;;;;;0.00;0.00;;;19.80;95.10;;;;;;5052993;28;20029;-76
2022/06/16 01:40:32;;;;;;;0.00;0.00;;;19.80;95.30;;;;;;5064712;28;20028;-76
2022/06/16 01:43:10;;;;;;;0.00;0.00;;;19.80;95.30;;;;;;5067946;28;20279;-76
2022/06/16 01:46:07;;;;;;;0.00;0.00;;;19.80;95.40;;;;;;5053045;28;20253;-76
2022/06/16 01:48:34;;;;;;;0.00;0.00;;;19.70;95.60;;;;;;5062579;28;20027;-76
2022/06/16 01:51:34;;;;;;;0.00;0.00;;;19.70;95.70;;;;;;5062147;28;20308;-76
2022/06/16 01:54:37;;;;;;;0.00;0.00;;;19.70;95.80;;;;;;5046745;28;20041;-76
2022/06/16 01:57:12;;;;;;;0.00;0.00;;;19.70;96.00;;;;;;5050774;28;20083;-75
2022/06/16 01:59:46;;;;;;;0.00;0.00;;;19.70;96.10;;;;;;5067504;28;20049;-75
2022/06/16 02:02:16;;;;;;;0.00;0.00;;;19.60;96.20;;;;;;5045380;28;20255;-75
2022/06/16 02:04:56;;;;;;;0.00;0.00;;;19.60;96.60;;;;;;5067540;28;20436;-76
2022/06/16 02:07:31;;;;;;;0.00;0.00;;;19.60;96.40;;;;;;5066869;28;20083;-75
2022/06/16 02:10:01;;;;;;;0.00;0.00;;;19.60;96.50;;;;;;5052481;28;20028;-75
2022/06/16 02:15:39;;;;;;;0.00;0.00;;;19.50;96.70;;;;;;5061469;28;20023;-75
2022/06/16 02:18:10;;;;;;;0.00;0.00;;;19.60;96.90;;;;;;5049603;28;20334;-75
2022/06/16 02:20:48;;;;;;;0.00;0.00;;;19.50;97.00;;;;;;5065759;28;20284;-75
2022/06/16 02:23:14;;;;;;;0.00;0.00;;;19.50;97.20;;;;;;5047691;28;20027;-75
2022/06/16 02:25:40;;;;;;;0.00;0.00;;;19.50;97.30;;;;;;5063576;28;20021;-75
2022/06/16 02:28:06;;;;;;;0.00;0.00;;;19.50;97.50;;;;;;5043381;28;20021;-75
2022/06/16 02:30:39;;;;;;;0.00;0.00;;;19.50;97.50;;;;;;5064080;28;20043;-75
2022/06/16 02:33:45;;;;;;;0.00;0.00;;;19.40;97.70;;;;;;5062770;28;20025;-75
2022/06/16 02:36:35;;;;;;;0.00;0.00;;;19.40;97.90;;;;;;5028059;28;20044;-75
2022/06/16 02:39:12;;;;;;;0.00;0.00;;;19.40;98.10;;;;;;5064041;28;20728;-75
2022/06/16 02:42:01;;;;;;;0.00;0.00;;;19.40;98.20;;;;;;5061447;28;20028;-75
2022/06/16 02:45:00;;;;;;;0.00;0.00;;;19.40;98.30;;;;;;5042780;28;20016;-75
2022/06/16 02:47:48;;;;;;;0.00;0.00;;;19.30;98.40;;;;;;5065998;28;20051;-75
2022/06/16 02:50:33;;;;;;;0.00;0.00;;;19.30;98.50;;;;;;5043334;28;20028;-75
2022/06/16 02:53:11;;;;;;;0.00;0.00;;;19.30;98.50;;;;;;5067711;28;20197;-75
2022/06/16 02:55:45;;;;;;;0.00;0.00;;;19.30;98.70;;;;;;5061766;28;20028;-75
2022/06/16 02:58:15;;;;;;;0.00;0.00;;;19.20;98.80;;;;;;5061707;28;20213;-74
2022/06/16 03:00:45;;;;;;;0.00;0.00;;;19.20;98.80;;;;;;5067228;28;20163;-75
2022/06/16 03:03:21;;;;;;;0.00;0.00;;;19.20;98.90;;;;;;5059960;28;20228;-75
2022/06/16 03:05:52;;;;;;;0.00;0.00;;;19.20;99.00;;;;;;5063376;28;20141;-75
2022/06/16 03:08:19;;;;;;;0.00;0.00;;;19.20;99.10;;;;;;5060016;28;20021;-75
2022/06/16 03:10:50;;;;;;;0.00;0.00;;;19.20;99.30;;;;;;5062519;28;20181;-75
2022/06/16 03:13:16;;;;;;;0.00;0.00;;;19.20;99.40;;;;;;5061688;28;20048;-75
2022/06/16 03:15:42;;;;;;;0.00;0.00;;;19.20;99.60;;;;;;5043870;28;20017;-75
2022/06/16 03:18:08;;;;;;;0.00;0.00;;;19.10;99.60;;;;;;5058196;28;20036;-75
2022/06/16 03:20:33;;;;;;;0.00;0.00;;;19.20;99.80;;;;;;5044169;28;20024;-75
2022/06/16 03:22:59;;;;;;;0.00;0.00;;;19.10;99.80;;;;;;5042826;28;20197;-76
2022/06/16 03:25:25;;;;;;;0.00;0.00;;;19.10;99.90;;;;;;5046248;28;20292;-75
2022/06/16 03:27:50;;;;;;;0.00;0.00;;;19.10;99.90;;;;;;5050331;28;20024;-75
2022/06/16 03:30:16;;;;;;;0.00;0.00;;;19.10;99.90;;;;;;5063664;28;20036;-75
2022/06/16 03:32:42;;;;;;;0.00;0.00;;;19.10;99.90;;;;;;5057256;28;20031;-75
2022/06/16 03:35:07;;;;;;;0.00;0.00;;;19.10;99.90;;;;;;5065723;28;20027;-76
2022/06/16 03:37:33;;;;;;;0.00;0.00;;;19.10;99.90;;;;;;5062908;28;20013;-75
2022/06/16 03:39:59;;;;;;;0.00;0.00;;;19.10;99.90;;;;;;5065206;28;20324;-75
2022/06/16 03:42:25;;;;;;;0.00;0.00;;;19.10;99.90;;;;;;5046587;28;20070;-75
2022/06/16 03:44:51;;;;;;;0.00;0.00;;;19.10;99.90;;;;;;5061611;28;20227;-76
2022/06/16 03:47:17;;;;;;;0.00;0.00;;;19.00;99.90;;;;;;5059638;28;20036;-75
2022/06/16 03:49:43;;;;;;;0.00;0.00;;;19.10;99.90;;;;;;5067266;28;20066;-76
2022/06/16 03:52:09;;;;;;;0.00;0.00;;;19.10;99.90;;;;;;5063416;28;20471;-75
2022/06/16 03:54:34;;;;;;;0.00;0.00;;;19.10;99.90;;;;;;5045317;28;20021;-75
2022/06/16 03:57:00;;;;;;;0.00;0.00;;;19.10;99.90;;;;;;5065274;28;20024;-75
2022/06/16 03:59:26;;;;;;;0.00;0.00;;;19.20;99.90;;;;;;5061933;28;20335;-76
2022/06/16 04:01:52;;;;;;;0.00;0.00;;;19.20;99.90;;;;;;5042434;28;20028;-76
2022/06/16 04:04:18;;;;;;;0.00;0.00;;;19.20;99.90;;;;;;5054058;28;20099;-76
2022/06/16 04:06:43;;;;;;;0.00;0.00;;;19.20;99.90;;;;;;5063348;28;20013;-75
2022/06/16 04:09:09;;;;;;;0.00;0.00;;;19.30;99.90;;;;;;5041848;28;20036;-76
2022/06/16 04:11:35;;;;;;;0.00;0.00;;;19.30;99.90;;;;;;5064421;28;20029;-76
2022/06/16 04:14:08;;;;;;;0.00;0.00;;;19.30;99.90;;;;;;5042651;28;20189;-76
2022/06/16 04:16:36;;;;;;;0.00;0.00;;;19.30;99.90;;;;;;5060459;28;20033;-76
2022/06/16 04:19:02;;;;;;;0.00;0.00;;;19.30;99.90;;;;;;5061286;28;20055;-76
2022/06/16 04:21:28;;;;;;;0.00;0.00;;;19.40;99.90;;;;;;5041143;28;20040;-76
2022/06/16 04:23:54;;;;;;;0.00;0.00;;;19.40;99.90;;;;;;5046534;28;20048;-75
2022/06/16 04:26:20;;;;;;;0.00;0.00;;;19.40;99.90;;;;;;5043894;28;20301;-76
2022/06/16 04:28:46;;;;;;;0.00;0.00;;;19.40;99.90;;;;;;5061434;28;20025;-76
2022/06/16 04:31:12;;;;;;;0.00;0.00;;;19.40;99.90;;;;;;5062712;28;20024;-76
2022/06/16 04:33:37;;;;;;;0.00;0.00;;;19.40;99.90;;;;;;5058425;28;20039;-76
2022/06/16 04:36:04;;;;;;;0.00;0.00;;;19.40;99.90;;;;;;5045480;28;20093;-76
2022/06/16 04:38:30;;;;;;;0.00;0.00;;;19.50;99.90;;;;;;5064296;28;20028;-76
2022/06/16 04:40:58;;;;;;;0.00;0.00;;;19.40;99.90;;;;;;5060223;28;20220;-76
2022/06/16 04:43:24;;;;;;;0.00;0.00;;;19.40;99.90;;;;;;5064282;28;20035;-76
2022/06/16 04:45:50;;;;;;;0.00;0.00;;;19.40;99.90;;;;;;5059676;28;20037;-76
2022/06/16 04:48:16;;;;;;;0.00;0.00;;;19.50;99.90;;;;;;5056541;28;20071;-76
2022/06/16 04:50:41;;;;;;;0.00;0.00;;;19.50;99.90;;;;;;5040937;28;20040;-76
2022/06/16 04:53:07;;;;;;;0.00;0.00;;;19.50;99.90;;;;;;5041872;28;20087;-76
2022/06/16 04:55:34;;;;;;;0.00;0.00;;;19.50;99.90;;;;;;5058806;28;20190;-76
2022/06/16 04:58:01;;;;;;;0.00;0.00;;;19.60;99.90;;;;;;5060706;28;20033;-76
2022/06/16 05:00:26;;;;;;;0.00;0.00;;;19.60;99.90;;;;;;5067138;28;20058;-75
2022/06/16 05:02:52;;;;;;;0.00;0.00;;;19.60;99.90;;;;;;5063478;28;20024;-76
2022/06/16 05:05:18;;;;;;;0.00;0.00;;;19.60;99.90;;;;;;5041284;28;20049;-75
2022/06/16 05:07:44;;;;;;;0.00;0.00;;;19.60;99.90;;;;;;5067798;28;20029;-75
2022/06/16 05:10:11;;;;;;;0.00;0.00;;;19.70;99.90;;;;;;5061487;28;20125;-75
2022/06/16 05:12:37;;;;;;;0.00;0.00;;;19.70;99.90;;;;;;5057008;28;20316;-76
2022/06/16 05:15:03;;;;;;;0.00;0.00;;;19.70;99.90;;;;;;5060735;28;20504;-75
2022/06/16 05:17:29;;;;;;;0.00;0.00;;;19.70;99.90;;;;;;5066162;28;20682;-75
2022/06/16 05:19:55;;;;;;;0.00;0.00;;;19.70;99.90;;;;;;5067728;28;20112;-76
2022/06/16 05:22:21;;;;;;;0.00;0.00;;;19.70;99.90;;;;;;5060323;28;20028;-76
2022/06/16 05:24:46;;;;;;;0.00;0.00;;;19.70;99.90;;;;;;5068993;28;20254;-75
2022/06/16 05:27:13;;;;;;;0.00;0.00;;;19.80;99.90;;;;;;5061919;28;20327;-76
2022/06/16 05:29:38;;;;;;;0.00;0.00;;;19.80;99.90;;;;;;5043525;28;20031;-75
2022/06/16 05:32:04;;;;;;;0.00;0.00;;;19.80;99.90;;;;;;5061153;28;20017;-75
2022/06/16 05:34:30;;;;;;;0.00;0.00;;;19.80;99.90;;;;;;5062643;28;20259;-75
2022/06/16 05:36:56;;;;;;;0.00;0.00;;;19.90;99.90;;;;;;5065760;28;20118;-75
2022/06/16 05:39:21;;;;;;;0.00;0.00;;;19.90;99.90;;;;;;5063455;28;20025;-75
2022/06/16 05:41:48;;;;;;;0.00;0.00;;;19.90;99.90;;;;;;5027058;28;20020;-75
2022/06/16 05:44:14;;;;;;;0.00;0.00;;;19.90;99.90;;;;;;5070274;28;20096;-75
2022/06/16 05:46:40;;;;;;;0.00;0.00;;;20.00;99.90;;;;;;5065093;28;20040;-77
2022/06/16 05:49:06;;;;;;;0.00;0.00;;;20.00;99.90;;;;;;5067427;28;20028;-76
2022/06/16 05:51:32;;;;;;;0.00;0.00;;;20.10;99.90;;;;;;5068487;28;20074;-76
2022/06/16 05:53:58;;;;;;;0.00;0.00;;;20.10;99.90;;;;;;5045213;28;20029;-75
2022/06/16 05:56:24;;;;;;;0.00;0.00;;;20.10;99.90;;;;;;5047034;28;20024;-76
2022/06/16 05:58:49;;;;;;;0.00;0.00;;;20.20;99.90;;;;;;5046693;28;20031;-76
2022/06/16 06:01:15;;;;;;;0.00;0.00;;;20.20;99.90;;;;;;5061933;28;20041;-76
2022/06/16 06:03:42;;;;;;;0.00;0.00;;;20.30;99.90;;;;;;5069898;28;20017;-76
2022/06/16 06:06:08;;;;;;;0.00;0.00;;;20.30;99.90;;;;;;5062082;28;20032;-76
2022/06/16 06:17:08;;;;;;;0.00;0.00;;;21.70;99.90;;;;;;5063179;28;20098;-76
2022/06/16 06:19:34;;;;;;;0.00;0.00;;;22.50;99.90;;;;;;5064437;28;20021;-76
2022/06/16 06:22:11;;;;;;;0.00;0.00;;;23.30;99.50;;;;;;5067949;28;20045;-77
2022/06/16 06:24:45;;;;;;;0.00;0.00;;;24.00;98.10;;;;;;5063451;28;20208;-76
2022/06/16 06:27:14;;;;;;;0.00;0.00;;;24.60;94.90;;;;;;5046430;28;20040;-76
2022/06/16 06:29:41;;;;;;;0.00;0.00;;;25.20;94.00;;;;;;5044388;28;20352;-76
2022/06/16 06:32:08;;;;;;;0.00;0.00;;;25.80;93.90;;;;;;5066782;28;20025;-77
2022/06/16 06:34:33;;;;;;;0.00;0.00;;;26.30;92.40;;;;;;5067902;28;20024;-76
2022/06/16 06:36:59;;;;;;;0.00;0.00;;;26.80;91.50;;;;;;5050778;28;20047;-77
2022/06/16 06:39:25;;;;;;;0.00;0.00;;;27.10;89.20;;;;;;5065361;28;20138;-76
2022/06/16 06:41:50;;;;;;;0.00;0.00;;;27.50;88.80;;;;;;5065009;28;20247;-76
2022/06/16 06:44:16;;;;;;;0.00;0.00;;;28.00;90.30;;;;;;5064705;28;20065;-76
2022/06/16 06:46:42;;;;;;;0.00;0.00;;;27.90;84.90;;;;;;5062270;28;20024;-77
2022/06/16 06:49:08;;;;;;;0.00;0.00;;;28.20;84.50;;;;;;5068425;28;20017;-76
2022/06/16 06:51:34;;;;;;;0.00;0.00;;;28.60;84.00;;;;;;5060592;28;20037;-77
2022/06/16 06:54:00;;;;;;;0.00;0.00;;;29.00;83.10;;;;;;5044921;28;20032;-77
2022/06/16 06:56:28;;;;;;;0.00;0.00;;;29.40;79.40;;;;;;5067205;28;20016;-77
2022/06/16 06:58:56;;;;;;;0.00;0.00;;;29.70;81.10;;;;;;5059996;28;20082;-77
2022/06/16 07:01:21;;;;;;;0.00;0.00;;;30.00;77.40;;;;;;5065245;28;20036;-77
2022/06/16 07:03:49;;;;;;;0.00;0.00;;;30.50;77.50;;;;;;5067728;28;20039;-77
2022/06/16 07:06:17;;;;;;;0.00;0.00;;;30.70;79.10;;;;;;5062400;28;20040;-76
2022/06/16 07:08:43;;;;;;;0.00;0.00;;;31.00;76.50;;;;;;5065467;28;20025;-77
2022/06/16 07:11:09;;;;;;;0.00;0.00;;;31.50;77.60;;;;;;5067481;28;20033;-78
2022/06/16 07:13:35;;;;;;;0.00;0.00;;;31.50;74.20;;;;;;5064892;28;20307;-76
2022/06/16 07:16:01;;;;;;;0.00;0.00;;;31.60;73.60;;;;;;5065112;28;20017;-76
2022/06/16 07:18:27;;;;;;;0.00;0.00;;;31.70;73.20;;;;;;5049358;28;20048;-75
2022/06/16 07:20:53;;;;;;;0.00;0.00;;;31.40;71.90;;;;;;5044355;28;20032;-75
2022/06/16 07:23:21;;;;;;;0.00;0.00;;;31.20;72.50;;;;;;5065360;28;20496;-77
2022/06/16 07:25:48;;;;;;;0.00;0.00;;;30.90;70.30;;;;;;5066890;28;20021;-77
2022/06/16 07:28:14;;;;;;;0.00;0.00;;;30.30;70.70;;;;;;5065380;28;20181;-76
2022/06/16 07:30:41;;;;;;;0.00;0.00;;;29.70;74.60;;;;;;5066474;28;20060;-76
2022/06/16 07:33:07;;;;;;;0.00;0.00;;;29.00;75.90;;;;;;5059832;28;20029;-76
2022/06/16 07:35:34;;;;;;;0.00;0.00;;;28.20;75.10;;;;;;5060385;28;20017;-74
2022/06/16 07:38:00;;;;;;;0.00;0.00;;;27.70;75.20;;;;;;5050680;28;20051;-74
2022/06/16 07:40:26;;;;;;;0.00;0.00;;;27.10;75.80;;;;;;5042844;28;20105;-78
2022/06/16 07:42:56;;;;;;;0.00;0.00;;;26.80;78.80;;;;;;5062105;28;20024;-76
2022/06/16 07:45:23;;;;;;;0.00;0.00;;;26.50;80.00;;;;;;5064540;28;20028;-76
2022/06/16 07:47:52;;;;;;;0.00;0.00;;;26.30;80.10;;;;;;5065474;28;20059;-77
2022/06/16 07:50:18;;;;;;;0.00;0.00;;;26.20;79.50;;;;;;5063711;28;20092;-76
2022/06/16 07:52:44;;;;;;;0.00;0.00;;;26.10;81.50;;;;;;5060386;28;20028;-76
2022/06/16 07:55:11;;;;;;;0.00;0.00;;;26.10;82.80;;;;;;5065491;28;20613;-76
2022/06/16 07:57:48;;;;;;;0.00;0.00;;;26.30;82.40;;;;;;5048424;28;20062;-76
2022/06/16 08:00:23;;;;;;;0.00;0.00;;;26.60;83.00;;;;;;5071524;28;20048;-75
2022/06/16 08:02:49;;;;;;;0.00;0.00;;;27.20;83.20;;;;;;5067515;28;20340;-78
2022/06/16 08:05:16;;;;;;;0.00;0.00;;;28.10;84.70;;;;;;5060281;28;20025;-76
2022/06/16 08:07:43;;;;;;;0.00;0.00;;;29.20;80.60;;;;;;5064508;28;20024;-76
2022/06/16 08:10:13;;;;;;;0.00;0.00;;;30.20;76.60;;;;;;5045354;28;20103;-78
2022/06/16 08:12:40;;;;;;;0.00;0.00;;;31.10;73.40;;;;;;5057419;28;20272;-78
2022/06/16 08:15:06;;;;;;;0.00;0.00;;;31.90;75.10;;;;;;5065539;28;20016;-78
2022/06/16 08:17:36;;;;;;;0.00;0.00;;;32.70;76.50;;;;;;5042615;28;20064;-76
2022/06/16 08:20:04;;;;;;;0.00;0.00;;;33.20;70.70;;;;;;5064304;28;20024;-76
2022/06/16 08:22:30;;;;;;;0.00;0.00;;;34.00;71.00;;;;;;5060866;28;20021;-78
2022/06/16 08:24:55;;;;;;;0.00;0.00;;;34.70;68.70;;;;;;5062357;28;20042;-77
2022/06/16 08:27:26;;;;;;;0.00;0.00;;;35.30;66.90;;;;;;5059653;28;20067;-78
2022/06/16 08:29:52;;;;;;;0.00;0.00;;;35.60;63.00;;;;;;5064649;28;20106;-77
2022/06/16 08:32:20;;;;;;;0.00;0.00;;;35.90;64.90;;;;;;5047181;28;20047;-77
2022/06/16 08:34:46;;;;;;;0.00;0.00;;;35.90;62.20;;;;;;5064629;28;20088;-78
2022/06/16 08:37:12;;;;;;;0.00;0.00;;;36.20;65.50;;;;;;5044239;28;20330;-77
2022/06/16 08:39:38;;;;;;;0.00;0.00;;;36.20;64.60;;;;;;5066844;28;20308;-76
2022/06/16 08:42:19;;;;;;;0.00;0.00;;;36.40;59.30;;;;;;5042801;28;20082;-78
2022/06/16 08:44:59;;;;;;;0.00;0.00;;;36.60;58.10;;;;;;5044915;28;20017;-76
2022/06/16 08:47:53;;;;;;;0.00;0.00;;;37.00;61.50;;;;;;5060840;28;20032;-77
2022/06/16 08:50:29;;;;;;;0.00;0.00;;;37.50;62.50;;;;;;5061614;28;20191;-79
2022/06/16 08:53:16;;;;;;;0.00;0.00;;;37.40;57.80;;;;;;5067069;28;20092;-77
2022/06/16 08:56:06;;;;;;;0.00;0.00;;;37.90;59.70;;;;;;5064618;28;20040;-77
2022/06/16 08:58:50;;;;;;;0.00;0.00;;;38.30;57.80;;;;;;5061020;28;20276;-78
2022/06/16 09:01:28;;;;;;;0.00;0.00;;;38.90;56.40;;;;;;5064411;28;20101;-77
2022/06/16 09:04:01;;;;;;;0.00;0.00;;;39.40;56.50;;;;;;5061469;28;20049;-77
2022/06/16 09:06:36;;;;;;;0.00;0.00;;;39.70;55.70;;;;;;5067240;28;20031;-77
2022/06/16 09:10:14;;;;;;;0.00;0.00;;;40.20;53.50;;;;;;5060879;28;20024;-78
2022/06/16 09:12:19;;;;;;;0.00;0.00;;;40.40;52.70;;;;;;5061790;28;20023;-77
2022/06/16 09:15:20;;;;;;;0.00;0.00;;;41.00;52.80;;;;;;5064452;28;20842;-76
2022/06/16 09:18:08;;;;;;;0.00;0.00;;;41.70;52.60;;;;;;5061118;28;20082;-76
2022/06/16 09:20:44;;;;;;;0.00;0.00;;;41.80;52.70;;;;;;5059941;28;20044;-77
2022/06/16 09:23:32;;;;;;;0.00;0.00;;;41.70;50.40;;;;;;5059626;28;20036;-76
2022/06/16 09:26:06;;;;;;;0.00;0.00;;;41.10;53.40;;;;;;5064024;28;20013;-76
2022/06/16 09:28:38;;;;;;;0.00;0.00;;;41.40;49.00;;;;;;5062605;28;20139;-76
2022/06/16 09:31:13;;;;;;;0.00;0.00;;;41.60;49.60;;;;;;5060876;28;20047;-77
2022/06/16 09:33:43;;;;;;;0.00;0.00;;;41.40;47.80;;;;;;5065034;28;20363;-77
2022/06/16 09:36:32;;;;;;;0.00;0.00;;;41.70;51.30;;;;;;5063878;28;20025;-78
2022/06/16 09:39:06;;;;;;;0.00;0.00;;;42.10;48.80;;;;;;5059247;28;20107;-77
2022/06/16 09:44:36;;;;;;;0.00;0.00;;;42.90;48.90;;;;;;5065618;28;20355;-78
2022/06/16 09:47:07;;;;;;;0.00;0.00;;;43.10;48.70;;;;;;5064405;28;20292;-77
2022/06/16 09:49:40;;;;;;;0.00;0.00;;;42.80;44.50;;;;;;5060209;28;20316;-77
2022/06/16 09:52:52;;;;;;;0.00;0.00;;;42.70;46.50;;;;;;5060793;28;20042;-77
2022/06/16 09:55:28;;;;;;;0.00;0.00;;;42.80;45.60;;;;;;5038891;28;20063;-77
2022/06/16 09:58:02;;;;;;;0.00;0.00;;;43.00;45.90;;;;;;5059011;28;20043;-77
2022/06/16 10:00:35;;;;;;;0.00;0.00;;;43.10;44.50;;;;;;5066596;28;20136;-75
2022/06/16 10:03:15;;;;;;;0.00;0.00;;;43.40;44.70;;;;;;5045388;28;20273;-77
2022/06/16 10:06:00;;;;;;;0.00;0.00;;;43.30;44.00;;;;;;5066417;28;20036;-77
2022/06/16 10:08:42;;;;;;;0.00;0.00;;;43.40;44.70;;;;;;5065432;28;20529;-78
2022/06/16 10:11:07;;;;;;;0.00;0.00;;;43.90;45.70;;;;;;5063821;28;20031;-77
2022/06/16 10:14:12;;;;;;;0.00;0.00;;;44.50;47.90;;;;;;5049567;28;20168;-78
2022/06/16 10:16:57;;;;;;;0.00;0.00;;;43.90;46.00;;;;;;5003214;28;20022;-78
2022/06/16 10:19:29;;;;;;;0.00;0.00;;;44.80;44.40;;;;;;5006953;28;20045;-78
2022/06/16 10:21:58;;;;;;;0.00;0.00;;;45.00;43.50;;;;;;5027675;28;20036;-78
2022/06/16 10:24:30;;;;;;;0.00;0.00;;;45.30;45.10;;;;;;5062732;28;20168;-78
2022/06/16 10:26:58;;;;;;;0.00;0.00;;;45.80;44.70;;;;;;5065266;28;20033;-77
2022/06/16 10:29:27;;;;;;;0.00;0.00;;;45.90;42.70;;;;;;5069561;28;20028;-78
2022/06/16 10:31:56;;;;;;;0.00;0.00;;;46.20;42.90;;;;;;5066876;28;20028;-77
2022/06/16 10:34:51;;;;;;;0.00;0.00;;;46.50;43.70;;;;;;5061306;28;20331;-78
2022/06/16 10:37:24;;;;;;;0.00;0.00;;;46.80;42.30;;;;;;5053889;28;20096;-77
2022/06/16 10:40:04;;;;;;;0.00;0.00;;;47.50;42.00;;;;;;5067814;28;20303;-78
2022/06/16 10:42:32;;;;;;;0.00;0.00;;;47.80;40.50;;;;;;5062864;28;20081;-77
2022/06/16 10:45:05;;;;;;;0.00;0.00;;;48.00;39.90;;;;;;5050571;28;20028;-78
2022/06/16 10:47:35;;;;;;;0.00;0.00;;;47.80;39.00;;;;;;5048104;28;20308;-78
2022/06/16 10:50:04;;;;;;;0.00;0.00;;;47.90;40.20;;;;;;5067429;28;20060;-76
2022/06/16 10:52:35;;;;;;;0.00;0.00;;;47.80;40.20;;;;;;5047497;28;20017;-76
2022/06/16 10:55:22;;;;;;;0.00;0.00;;;48.30;42.20;;;;;;5047186;28;20033;-76
2022/06/16 10:58:04;;;;;;;0.00;0.00;;;48.10;41.00;;;;;;5045244;28;20021;-77
2022/06/16 11:00:33;;;;;;;0.00;0.00;;;48.30;40.30;;;;;;5062407;28;20056;-77
2022/06/16 11:03:07;;;;;;;0.00;0.00;;;48.10;39.80;;;;;;5064443;28;20344;-77
2022/06/16 11:05:46;;;;;;;0.00;0.00;;;47.70;42.00;;;;;;5071160;28;20066;-77
2022/06/16 11:08:14;;;;;;;0.00;0.00;;;47.60;37.90;;;;;;5065356;28;20017;-77
2022/06/16 11:10:49;;;;;;;0.00;0.00;;;46.60;37.10;;;;;;5063287;28;20043;-77
2022/06/16 11:13:16;;;;;;;0.00;0.00;;;45.80;39.60;;;;;;5062545;28;20046;-76
2022/06/16 11:15:48;;;;;;;0.00;0.00;;;43.90;38.10;;;;;;5067651;28;20048;-76
2022/06/16 11:18:20;;;;;;;0.00;0.00;;;42.70;39.50;;;;;;5048093;28;20024;-76
2022/06/16 11:20:49;;;;;;;0.00;0.00;;;41.90;40.80;;;;;;5050305;28;20070;-76
2022/06/16 11:23:21;;;;;;;0.00;0.00;;;41.10;41.70;;;;;;5062540;28;20044;-76
2022/06/16 11:25:54;;;;;;;0.00;0.00;;;40.40;42.40;;;;;;5066857;28;20031;-76
2022/06/16 11:28:23;;;;;;;0.00;0.00;;;39.90;42.60;;;;;;5045708;28;20125;-76
2022/06/16 11:30:48;;;;;;;0.00;0.00;;;39.50;42.20;;;;;;5066954;28;20556;-76
2022/06/16 11:36:43;;;;;;;0.00;0.00;;;38.20;43.70;;;;;;5065162;28;20020;-75
2022/06/16 11:39:24;;;;;;;0.00;0.00;;;37.60;44.50;;;;;;5064959;28;20021;-75
2022/06/16 11:41:53;;;;;;;0.00;0.00;;;36.90;47.80;;;;;;5050039;28;20193;-75
2022/06/16 11:44:49;;;;;;;0.00;0.00;;;36.40;46.80;;;;;;5049902;28;20068;-75
2022/06/16 11:47:37;;;;;;;0.00;0.00;;;35.80;49.00;;;;;;5044157;28;20143;-76
2022/06/16 11:50:03;;;;;;;0.00;0.00;;;35.20;48.60;;;;;;5045690;28;20039;-75
2022/06/16 11:52:50;;;;;;;0.00;0.00;;;34.50;48.20;;;;;;5063102;28;20040;-75
2022/06/16 11:55:22;;;;;;;0.00;0.00;;;33.90;48.20;;;;;;5062116;28;20046;-76
2022/06/16 11:57:50;;;;;;;0.00;0.00;;;33.30;50.00;;;;;;5058993;28;20041;-75
2022/06/16 12:00:35;;;;;;;0.00;0.00;;;32.90;50.60;;;;;;5063643;28;20112;-75
2022/06/16 12:03:30;;;;;;;0.00;0.00;;;32.60;50.80;;;;;;5059175;28;20017;-76
2022/06/16 12:06:17;;;;;;;0.00;0.00;;;32.20;51.40;;;;;;5053253;28;20134;-74
2022/06/16 12:09:22;;;;;;;0.00;0.00;;;31.80;52.40;;;;;;5064493;28;20047;-75
2022/06/16 12:12:18;;;;;;;0.00;0.00;;;31.60;54.60;;;;;;5061309;28;20023;-76
2022/06/16 12:15:00;;;;;;;0.00;0.00;;;31.30;52.70;;;;;;5053720;28;20330;-75
2022/06/16 12:17:34;;;;;;;0.00;0.00;;;31.10;53.60;;;;;;5062876;28;20048;-75
2022/06/16 12:20:13;;;;;;;0.00;0.00;;;31.00;56.60;;;;;;5041327;28;20282;-75
2022/06/16 12:22:51;;;;;;;0.00;0.00;;;30.90;57.50;;;;;;5066295;28;20449;-74
2022/06/16 12:25:45;;;;;;;0.00;0.00;;;30.80;53.90;;;;;;5065152;28;20088;-75
2022/06/16 12:28:33;;;;;;;0.00;0.00;;;30.70;53.70;;;;;;5049394;28;20017;-74
2022/06/16 12:31:12;;;;;;;0.00;0.00;;;30.60;54.10;;;;;;5044629;28;20520;-75
2022/06/16 12:34:05;;;;;;;0.00;0.00;;;30.50;54.00;;;;;;5063417;28;20084;-76
2022/06/16 12:36:51;;;;;;;0.00;0.00;;;30.40;54.70;;;;;;5067149;28;20092;-75
2022/06/16 12:39:36;;;;;;;0.00;0.00;;;30.40;53.90;;;;;;5065094;28;20016;-77
2022/06/16 12:42:11;;;;;;;0.00;0.00;;;30.40;54.40;;;;;;5065886;28;20024;-76
2022/06/16 12:45:14;;;;;;;0.00;0.00;;;30.40;54.70;;;;;;5064850;28;20063;-75
2022/06/16 12:47:55;;;;;;;0.00;0.00;;;30.20;56.20;;;;;;5042610;28;20048;-77
2022/06/16 12:50:31;;;;;;;0.00;0.00;;;30.30;56.40;;;;;;5065208;28;20056;-75
2022/06/16 12:53:08;;;;;;;0.00;0.00;;;30.20;54.60;;;;;;5050342;28;20023;-74
2022/06/16 12:55:51;;;;;;;0.00;0.00;;;30.10;54.30;;;;;;5062343;28;20078;-74
2022/06/16 12:58:23;;;;;;;0.00;0.00;;;30.10;54.40;;;;;;5060609;28;20044;-75
2022/06/16 13:00:57;;;;;;;0.00;0.00;;;30.20;55.90;;;;;;5058855;28;20057;-75
2022/06/16 13:03:34;;;;;;;0.00;0.00;;;30.30;56.60;;;;;;5062270;28;20024;-73
2022/06/16 13:06:02;;;;;;;0.00;0.00;;;30.30;57.00;;;;;;5065085;28;20028;-75
2022/06/16 13:08:32;;;;;;;0.00;0.00;;;30.50;57.50;;;;;;5063962;28;20031;-75
2022/06/16 13:11:03;;;;;;;0.00;0.00;;;30.50;56.20;;;;;;5047670;28;20079;-75
2022/06/16 13:13:39;;;;;;;0.00;0.00;;;30.60;56.10;;;;;;5041931;28;20021;-77
2022/06/16 13:16:07;;;;;;;0.00;0.00;;;30.70;55.60;;;;;;5064730;28;20087;-75
2022/06/16 13:18:45;;;;;;;0.00;0.00;;;30.70;53.60;;;;;;5061688;28;20300;-76
2022/06/16 13:21:23;;;;;;;0.00;0.00;;;30.70;55.40;;;;;;5063218;28;20067;-75
2022/06/16 13:23:52;;;;;;;0.00;0.00;;;30.70;56.00;;;;;;5064389;28;20021;-76
2022/06/16 13:26:38;;;;;;;0.00;0.00;;;30.80;56.30;;;;;;5063698;28;20033;-75
2022/06/16 13:29:06;;;;;;;0.00;0.00;;;30.90;55.90;;;;;;5067360;28;20021;-75
2022/06/16 13:31:56;;;;;;;0.00;0.00;;;30.80;54.10;;;;;;5055061;28;20610;-75
2022/06/16 13:34:52;;;;;;;0.00;0.00;;;30.70;55.80;;;;;;5060143;28;20017;-74
2022/06/16 13:37:35;;;;;;;0.00;0.00;;;30.70;55.00;;;;;;5047818;28;20048;-74
2022/06/16 13:40:07;;;;;;;0.00;0.00;;;30.50;54.50;;;;;;5066713;28;20029;-75
2022/06/16 13:42:47;;;;;;;0.00;0.00;;;30.40;55.80;;;;;;5065023;28;20067;-74